Time;durP1;ratioP1;P1;durP2;ratioP2;P2;SDS_P1;SDS_P2;PMS_P1;PMS_P2;Temp;Humidity;BMP_temperature;BMP_pressure;BME280_temperature;BME280_humidity;BME280_pressure;Samples;Min_cycle;Max_cycle;Signal;HPM_P1;HPM_P2
2024/02/27 00:01:50;;;;;;;1.48;1.38;;;;;;;26.21;nan;100433.81;7387155;19;20029;-82
2024/02/27 00:04:16;;;;;;;3.50;1.45;;;;;;;26.15;nan;100431.16;7391281;19;20019;-82
2024/02/27 00:06:43;;;;;;;2.72;1.45;;;;;;;26.26;nan;100430.78;7389400;19;20018;-82
2024/02/27 00:09:14;;;;;;;2.28;0.82;;;;;;;26.36;nan;100428.09;7391137;19;20026;-82
2024/02/27 00:11:41;;;;;;;3.97;1.95;;;;;;;26.50;nan;100411.53;7388603;19;20614;-82
2024/02/27 00:14:07;;;;;;;4.50;1.92;;;;;;;26.25;nan;100417.81;7388139;19;20365;-81
2024/02/27 00:16:33;;;;;;;3.67;1.27;;;;;;;26.09;nan;100426.97;7390802;19;20353;-81
2024/02/27 00:18:59;;;;;;;1.65;0.98;;;;;;;26.16;nan;100431.94;7389360;19;20018;-82
2024/02/27 00:21:25;;;;;;;8.25;3.08;;;;;;;27.66;nan;100430.00;7391148;19;20019;-82
2024/02/27 00:23:52;;;;;;;3.13;1.83;;;;;;;27.61;nan;100439.59;7389489;19;20032;-82
2024/02/27 00:26:18;;;;;;;13.52;1.88;;;;;;;26.96;nan;100438.72;7389872;19;20015;-81
2024/02/27 00:28:44;;;;;;;1.75;1.65;;;;;;;26.45;nan;100447.53;7389553;19;20017;-82
2024/02/27 00:31:10;;;;;;;0.40;0.40;;;;;;;26.76;nan;100437.63;7390876;19;20033;-81
2024/02/27 00:33:36;;;;;;;0.98;0.98;;;;;;;27.03;nan;100438.66;7392437;19;20039;-81
2024/02/27 00:36:02;;;;;;;10.13;1.40;;;;;;;27.16;nan;100439.78;7389067;19;20011;-81
2024/02/27 00:38:28;;;;;;;2.25;1.48;;;;;;;26.95;nan;100440.81;7388430;19;20018;-81
2024/02/27 00:40:54;;;;;;;0.52;0.52;;;;;;;26.82;nan;100443.13;7393856;19;20019;-82
2024/02/27 00:43:21;;;;;;;3.15;1.45;;;;;;;26.96;nan;100435.84;7390517;19;20041;-82
2024/02/27 00:45:47;;;;;;;0.52;0.52;;;;;;;27.07;nan;100421.13;7388852;19;20074;-81
2024/02/27 00:48:13;;;;;;;2.05;0.82;;;;;;;26.80;nan;100420.84;7388876;19;20018;-82
2024/02/27 00:50:40;;;;;;;0.35;0.35;;;;;;;26.74;nan;100431.72;7392486;19;20472;-81
2024/02/27 00:53:07;;;;;;;0.60;0.60;;;;;;;26.79;nan;100430.00;7389716;19;20054;-81
2024/02/27 00:55:33;;;;;;;21.67;2.15;;;;;;;26.80;nan;100431.50;7390552;19;20109;-82
2024/02/27 00:57:59;;;;;;;4.05;0.95;;;;;;;26.34;nan;100436.47;7390061;19;20471;-81
2024/02/27 01:00:25;;;;;;;32.42;1.80;;;;;;;26.15;nan;100430.41;7389478;19;20484;-81
2024/02/27 01:02:52;;;;;;;4.43;1.30;;;;;;;26.17;nan;100433.44;7393052;19;20017;-81
2024/02/27 01:05:18;;;;;;;1.95;1.17;;;;;;;26.27;nan;100425.81;7385822;19;20022;-81
2024/02/27 01:07:44;;;;;;;0.75;0.75;;;;;;;26.15;nan;100418.97;7388793;19;20007;-81
2024/02/27 01:10:11;;;;;;;1.25;0.85;;;;;;;25.90;nan;100426.56;7387929;19;20022;-81
2024/02/27 01:12:38;;;;;;;3.63;1.70;;;;;;;25.60;nan;100435.06;7391690;19;20019;-81
2024/02/27 01:15:05;;;;;;;1.50;1.40;;;;;;;25.58;nan;100421.34;7386213;19;20369;-81
2024/02/27 01:17:31;;;;;;;2.28;1.27;;;;;;;25.74;nan;100420.06;7388486;19;20011;-81
2024/02/27 01:19:57;;;;;;;1.60;1.50;;;;;;;26.38;nan;100425.44;7388072;19;20019;-80
2024/02/27 01:22:30;;;;;;;1.00;1.00;;;;;;;26.53;nan;100422.56;7391450;19;20397;-81
2024/02/27 01:24:58;;;;;;;1.33;1.25;;;;;;;26.63;nan;100412.09;7396235;19;20011;-81
2024/02/27 01:27:25;;;;;;;7.63;1.27;;;;;;;26.99;nan;100403.22;7396357;19;20078;-81
2024/02/27 01:29:53;;;;;;;0.40;0.32;;;;;;;27.09;nan;100394.81;7395358;19;20365;-81
2024/02/27 01:32:19;;;;;;;0.95;0.93;;;;;;;27.05;nan;100393.09;7395129;19;20015;-80
2024/02/27 01:34:46;;;;;;;5.05;1.30;;;;;;;27.00;nan;100391.25;7396648;19;20010;-81
2024/02/27 01:37:12;;;;;;;0.73;0.73;;;;;;;27.39;nan;100384.03;7394176;19;20376;-81
2024/02/27 01:39:39;;;;;;;0.60;0.60;;;;;;;27.55;nan;100381.81;7393997;19;20027;-81
2024/02/27 01:42:05;;;;;;;0.70;0.70;;;;;;;27.66;nan;100372.78;7395525;19;20023;-81
2024/02/27 01:44:31;;;;;;;0.70;0.70;;;;;;;27.71;nan;100368.94;7394174;19;20039;-80
2024/02/27 01:46:59;;;;;;;1.85;0.85;;;;;;;27.68;nan;100378.66;7394583;19;20015;-81
2024/02/27 01:49:27;;;;;;;0.50;0.50;;;;;;;27.55;nan;100384.66;7395405;19;20372;-82
2024/02/27 01:51:55;;;;;;;0.40;0.40;;;;;;;27.27;nan;100376.41;7394232;19;20022;-85
2024/02/27 01:54:26;;;;;;;3.50;0.50;;;;;;;27.34;nan;100369.91;7394837;19;20018;-84
2024/02/27 01:56:53;;;;;;;0.75;0.28;;;;;;;27.62;nan;100366.69;7395831;19;20018;-83
2024/02/27 01:59:21;;;;;;;2.38;1.02;;;;;;;27.88;nan;100371.84;7394153;19;20032;-85
2024/02/27 02:01:51;;;;;;;1.95;1.20;;;;;;;27.96;nan;100366.81;7392962;19;20535;-83
2024/02/27 02:04:18;;;;;;;0.80;0.80;;;;;;;28.14;nan;100359.81;7394372;19;20029;-82
2024/02/27 02:06:48;;;;;;;3.10;1.10;;;;;;;28.16;nan;100362.84;7394097;19;20566;-82
2024/02/27 02:09:14;;;;;;;2.08;0.80;;;;;;;28.16;nan;100362.84;7399631;19;20099;-82
2024/02/27 02:11:42;;;;;;;3.85;1.00;;;;;;;28.10;nan;100365.22;7402388;19;20029;-82
2024/02/27 02:14:08;;;;;;;0.95;0.95;;;;;;;28.05;nan;100379.75;7392812;19;20025;-82
2024/02/27 02:16:34;;;;;;;0.60;0.60;;;;;;;27.82;nan;100384.88;7392458;19;20022;-83
2024/02/27 02:19:00;;;;;;;1.33;1.23;;;;;;;27.91;nan;100379.28;7395361;19;20527;-84
2024/02/27 02:21:27;;;;;;;0.68;0.68;;;;;;;28.14;nan;100371.28;7393173;19;20429;-82
2024/02/27 02:23:55;;;;;;;0.55;0.55;;;;;;;28.21;nan;100375.41;7393447;19;20014;-84
2024/02/27 02:26:24;;;;;;;4.22;1.88;;;;;;;27.18;nan;100374.19;7393198;19;20011;-82
2024/02/27 02:28:51;;;;;;;2.25;0.77;;;;;;;26.85;nan;100370.50;7393400;19;20438;-83
2024/02/27 02:31:17;;;;;;;0.45;0.45;;;;;;;26.65;nan;100372.25;7392951;19;20018;-86
2024/02/27 02:33:43;;;;;;;1.70;1.48;;;;;;;25.85;nan;100361.84;7398621;19;20014;-85
2024/02/27 02:36:09;;;;;;;1.00;1.00;;;;;;;25.28;nan;100356.41;7390141;19;20018;-82
2024/02/27 02:38:35;;;;;;;1.75;1.30;;;;;;;24.75;nan;100356.19;7392915;19;20010;-83
2024/02/27 02:41:01;;;;;;;3.35;1.50;;;;;;;25.28;nan;100347.84;7394664;19;20494;-85
2024/02/27 02:43:27;;;;;;;4.82;0.73;;;;;;;25.15;nan;100342.31;7393044;19;20027;-84
2024/02/27 02:45:53;;;;;;;1.70;1.38;;;;;;;25.11;nan;100341.91;7389615;19;20011;-84
2024/02/27 02:48:19;;;;;;;1.20;1.10;;;;;;;24.96;nan;100344.72;7390316;19;20034;-82
2024/02/27 02:50:46;;;;;;;3.20;1.08;;;;;;;25.46;nan;100349.66;7392698;19;20028;-81
2024/02/27 02:53:12;;;;;;;5.38;1.38;;;;;;;25.63;nan;100329.13;7394836;19;20077;-82
2024/02/27 02:55:42;;;;;;;7.30;1.25;;;;;;;25.36;nan;100328.66;7391198;19;20015;-82
2024/02/27 02:58:09;;;;;;;1.30;1.20;;;;;;;24.98;nan;100339.22;7394427;19;20101;-82
2024/02/27 03:00:35;;;;;;;5.47;1.30;;;;;;;25.37;nan;100335.91;7393485;19;20014;-82
2024/02/27 03:03:01;;;;;;;0.80;0.80;;;;;;;25.50;nan;100324.34;7393463;19;20026;-82
2024/02/27 03:05:27;;;;;;;1.23;1.17;;;;;;;25.58;nan;100317.91;7396944;19;20546;-82
2024/02/27 03:07:53;;;;;;;1.52;1.42;;;;;;;25.70;nan;100307.63;7392125;19;20011;-81
2024/02/27 03:10:19;;;;;;;0.70;0.70;;;;;;;25.36;nan;100311.56;7393617;19;20030;-85
2024/02/27 03:12:46;;;;;;;0.55;0.55;;;;;;;25.71;nan;100309.91;7393112;19;20070;-85
2024/02/27 03:15:12;;;;;;;0.40;0.40;;;;;;;25.60;nan;100309.53;7395485;19;20010;-84
2024/02/27 03:17:38;;;;;;;1.23;1.17;;;;;;;25.45;nan;100308.19;7398285;19;20013;-82
2024/02/27 03:20:05;;;;;;;0.77;0.75;;;;;;;24.73;nan;100315.34;7392849;19;20033;-81
2024/02/27 03:22:32;;;;;;;0.57;0.43;;;;;;;24.57;nan;100316.59;7393698;19;20010;-82
2024/02/27 03:25:04;;;;;;;1.15;0.80;;;;;;;24.74;nan;100316.84;7391753;19;20018;-82
2024/02/27 03:27:31;;;;;;;3.42;1.67;;;;;;;24.60;nan;100312.63;7394809;19;20018;-84
2024/02/27 03:29:57;;;;;;;0.85;0.80;;;;;;;24.77;nan;100307.22;7393028;19;20033;-83
2024/02/27 03:32:23;;;;;;;7.82;1.17;;;;;;;24.93;nan;100303.09;7393180;19;20467;-83
2024/02/27 03:34:50;;;;;;;0.85;0.85;;;;;;;25.06;nan;100305.78;7391186;19;20189;-83
2024/02/27 03:37:16;;;;;;;1.15;0.77;;;;;;;24.28;nan;100306.56;7395522;19;20014;-83
2024/02/27 03:39:43;;;;;;;1.30;1.02;;;;;;;24.24;nan;100298.38;7392083;19;20011;-83
2024/02/27 03:42:09;;;;;;;2.65;1.10;;;;;;;24.12;nan;100293.56;7392613;19;20018;-83
2024/02/27 03:44:36;;;;;;;0.55;0.50;;;;;;;24.36;nan;100285.34;7393056;19;20035;-82
2024/02/27 03:47:04;;;;;;;0.85;0.85;;;;;;;24.28;nan;100280.94;7393314;19;20015;-82
2024/02/27 03:49:30;;;;;;;2.05;0.70;;;;;;;24.22;nan;100281.09;7394012;19;20027;-83
2024/02/27 03:51:56;;;;;;;19.65;1.30;;;;;;;23.98;nan;100279.41;7391105;19;20502;-82
2024/02/27 03:54:22;;;;;;;2.88;1.13;;;;;;;23.40;nan;100284.81;7391251;19;20136;-82
2024/02/27 03:56:48;;;;;;;3.75;0.73;;;;;;;23.46;nan;100293.19;7395155;19;20493;-83
2024/02/27 03:59:14;;;;;;;3.50;1.30;;;;;;;22.95;nan;100287.16;7390710;19;20452;-84
2024/02/27 04:01:41;;;;;;;3.60;1.48;;;;;;;23.35;nan;100280.78;7394054;19;20023;-84
2024/02/27 04:04:07;;;;;;;14.43;1.20;;;;;;;23.17;nan;100290.22;7393067;19;20043;-84
2024/02/27 04:06:34;;;;;;;2.95;1.63;;;;;;;21.55;nan;100287.59;7390767;19;20011;-82
2024/02/27 04:09:01;;;;;;;1.17;1.13;;;;;;;20.21;nan;100302.84;7389233;19;20015;-82
2024/02/27 04:11:28;;;;;;;0.25;0.25;;;;;;;19.87;nan;100298.03;7391617;19;20014;-81
2024/02/27 04:13:54;;;;;;;1.40;0.90;;;;;;;18.60;nan;100303.31;7391732;19;20019;-83
2024/02/27 04:16:21;;;;;;;14.98;0.70;;;;;;;17.98;nan;100315.28;7388749;19;20010;-82
2024/02/27 04:18:47;;;;;;;5.05;0.75;;;;;;;17.05;nan;100316.81;7389712;19;20511;-82
2024/02/27 04:21:13;;;;;;;2.33;1.27;;;;;;;16.25;nan;100321.13;7390744;19;20023;-82
2024/02/27 04:23:39;;;;;;;4.45;0.77;;;;;;;16.56;nan;100316.19;7390030;19;20040;-82
2024/02/27 04:26:05;;;;;;;0.30;0.30;;;;;;;16.73;nan;100321.09;7390454;19;20021;-82
2024/02/27 04:28:32;;;;;;;2.95;1.17;;;;;;;16.64;nan;100327.72;7389312;19;20036;-82
2024/02/27 04:30:58;;;;;;;17.98;1.92;;;;;;;17.76;nan;100318.91;7390248;19;20019;-82
2024/02/27 04:33:24;;;;;;;2.72;2.50;;;;;;;17.17;nan;100312.75;7394379;19;20015;-82
2024/02/27 04:35:50;;;;;;;0.98;0.98;;;;;;;18.60;nan;100311.03;7388700;19;20018;-82
2024/02/27 04:38:16;;;;;;;4.45;1.75;;;;;;;20.26;nan;100309.75;7390551;19;20013;-85
2024/02/27 04:40:42;;;;;;;6.43;3.35;;;;;;;20.50;nan;100303.28;7389821;19;20460;-85
2024/02/27 04:43:08;;;;;;;12.63;2.08;;;;;;;20.81;nan;100309.03;7394738;19;20103;-85
2024/02/27 04:45:35;;;;;;;17.23;2.65;;;;;;;21.08;nan;100301.47;7392609;19;20034;-81
2024/02/27 04:48:03;;;;;;;19.52;1.80;;;;;;;21.41;nan;100314.34;7388824;19;20022;-81
2024/02/27 04:50:29;;;;;;;0.77;0.77;;;;;;;21.07;nan;100314.84;7389783;19;20014;-81
2024/02/27 04:52:56;;;;;;;3.58;2.17;;;;;;;20.19;nan;100328.03;7392594;19;20027;-81
2024/02/27 04:55:22;;;;;;;6.28;1.13;;;;;;;18.92;nan;100331.91;7388863;19;20018;-81
2024/02/27 04:57:48;;;;;;;8.48;2.10;;;;;;;18.04;nan;100328.09;7388055;19;20031;-81
2024/02/27 05:00:15;;;;;;;5.70;1.45;;;;;;;17.38;nan;100320.44;7397475;19;20026;-82
2024/02/27 05:02:41;;;;;;;3.53;0.70;;;;;;;17.31;nan;100303.28;7399933;19;20463;-81
2024/02/27 05:05:07;;;;;;;2.08;0.77;;;;;;;16.69;nan;100290.41;7395073;19;20020;-81
2024/02/27 05:07:34;;;;;;;2.38;1.50;;;;;;;16.43;nan;100286.97;7395615;19;20037;-82
2024/02/27 05:10:00;;;;;;;6.35;2.13;;;;;;;15.88;nan;100284.63;7396821;19;20081;-81
2024/02/27 05:12:26;;;;;;;1.65;1.55;;;;;;;16.83;nan;100266.91;7394799;19;20018;-81
2024/02/27 05:14:52;;;;;;;12.10;3.10;;;;;;;16.97;nan;100265.13;7394925;19;20014;-81
2024/02/27 05:17:18;;;;;;;0.65;0.65;;;;;;;15.88;nan;100279.03;7394307;19;20037;-81
2024/02/27 05:19:44;;;;;;;11.30;2.92;;;;;;;17.34;nan;100265.69;7397446;19;20018;-81
2024/02/27 05:22:10;;;;;;;0.85;0.85;;;;;;;21.02;nan;100261.13;7395307;19;20011;-81
2024/02/27 05:24:36;;;;;;;2.42;1.73;;;;;;;16.72;nan;100278.13;7398719;19;20423;-81
2024/02/27 05:27:03;;;;;;;2.28;1.75;;;;;;;15.92;nan;100271.91;7394688;19;20515;-81
2024/02/27 05:29:32;;;;;;;11.30;2.45;;;;;;;15.57;nan;100270.66;7395188;19;20014;-81
2024/02/27 05:31:59;;;;;;;0.85;0.85;;;;;;;16.42;nan;100260.09;7396779;19;20021;-81
2024/02/27 05:34:25;;;;;;;4.00;2.30;;;;;;;16.32;nan;100262.41;7397530;19;20018;-81
2024/02/27 05:36:52;;;;;;;3.08;1.17;;;;;;;16.42;nan;100251.69;7393836;19;20022;-81
2024/02/27 05:39:18;;;;;;;7.88;2.50;;;;;;;16.97;nan;100260.28;7394803;19;20037;-82
2024/02/27 05:41:44;;;;;;;14.50;1.58;;;;;;;17.17;nan;100262.09;7394732;19;20018;-81
2024/02/27 05:44:10;;;;;;;2.88;2.67;;;;;;;17.47;nan;100257.47;7396963;19;20022;-81
2024/02/27 05:46:36;;;;;;;11.80;3.97;;;;;;;17.42;nan;100255.41;7393813;19;20051;-81
2024/02/27 05:49:02;;;;;;;5.03;1.70;;;;;;;17.37;nan;100250.56;7392953;19;20405;-81
2024/02/27 05:51:28;;;;;;;6.50;2.65;;;;;;;16.73;nan;100256.41;7394052;19;20007;-81
2024/02/27 05:53:54;;;;;;;1.20;0.80;;;;;;;16.28;nan;100256.25;7394074;19;20074;-81
2024/02/27 05:56:21;;;;;;;1.60;0.85;;;;;;;16.40;nan;100249.38;7398063;19;20022;-81
2024/02/27 05:58:48;;;;;;;3.75;2.25;;;;;;;14.86;nan;100251.91;7395945;19;20084;-81
2024/02/27 06:01:15;;;;;;;4.53;1.83;;;;;;;15.12;nan;100253.44;7394852;19;20010;-81
2024/02/27 06:03:41;;;;;;;1.50;0.98;;;;;;;15.78;nan;100246.81;7392710;19;20019;-82
2024/02/27 06:06:08;;;;;;;4.40;1.10;;;;;;;16.16;nan;100251.06;7392547;19;20078;-81
2024/02/27 06:08:34;;;;;;;1.15;1.05;;;;;;;16.31;nan;100260.84;7392026;19;20014;-80
2024/02/27 06:11:00;;;;;;;4.53;1.48;;;;;;;15.39;nan;100265.38;7394066;19;20027;-81
2024/02/27 06:13:26;;;;;;;0.25;0.25;;;;;;;15.16;nan;100270.03;7392645;19;20014;-81
2024/02/27 06:15:52;;;;;;;5.05;1.10;;;;;;;15.39;nan;100259.78;7392142;19;20018;-81
2024/02/27 06:18:18;;;;;;;3.35;1.55;;;;;;;14.33;nan;100261.56;7393410;19;20544;-81
2024/02/27 06:23:31;;;;;;;3.75;2.15;;;;;;;14.75;nan;100260.97;7395058;19;20014;-82
2024/02/27 06:25:57;;;;;;;5.70;1.58;;;;;;;14.95;nan;100260.94;7389560;19;20038;-82
2024/02/27 06:28:23;;;;;;;1.52;1.38;;;;;;;14.82;nan;100251.38;7390905;19;20023;-81
2024/02/27 06:30:50;;;;;;;1.00;0.90;;;;;;;15.34;nan;100254.88;7395404;19;20456;-82
2024/02/27 06:33:16;;;;;;;1.70;1.40;;;;;;;15.67;nan;100258.75;7395437;19;20022;-81
2024/02/27 06:35:42;;;;;;;2.60;2.13;;;;;;;15.73;nan;100255.94;7392336;19;20018;-82
2024/02/27 06:38:08;;;;;;;2.47;0.55;;;;;;;15.53;nan;100262.47;7393960;19;20015;-81
2024/02/27 06:40:34;;;;;;;1.80;1.70;;;;;;;15.61;nan;100252.31;7392186;19;20074;-82
2024/02/27 06:43:00;;;;;;;9.07;1.77;;;;;;;15.63;nan;100246.97;7397254;19;20030;-82
2024/02/27 06:45:26;;;;;;;3.65;1.35;;;;;;;15.51;nan;100244.56;7396882;19;20035;-82
2024/02/27 06:47:53;;;;;;;4.82;2.40;;;;;;;15.33;nan;100256.16;7391130;19;20014;-81
2024/02/27 06:50:19;;;;;;;2.33;1.75;;;;;;;15.29;nan;100244.41;7392371;19;20010;-82
2024/02/27 06:52:45;;;;;;;12.70;2.22;;;;;;;15.38;nan;100244.97;7392903;19;20018;-83
2024/02/27 06:55:11;;;;;;;2.17;1.73;;;;;;;15.42;nan;100242.69;7393442;19;20022;-82
2024/02/27 06:57:37;;;;;;;7.03;2.38;;;;;;;15.14;nan;100244.50;7393520;19;20019;-82
2024/02/27 07:00:07;;;;;;;2.17;1.98;;;;;;;15.68;nan;100243.41;7392602;19;20013;-82
2024/02/27 07:02:33;;;;;;;3.85;1.65;;;;;;;15.34;nan;100241.63;7393072;19;20015;-82
2024/02/27 07:04:59;;;;;;;13.95;3.80;;;;;;;15.02;nan;100243.66;7395818;19;20490;-82
2024/02/27 07:07:25;;;;;;;1.05;1.05;;;;;;;14.59;nan;100239.19;7393832;19;20081;-83
2024/02/27 07:09:51;;;;;;;3.08;1.90;;;;;;;14.41;nan;100231.06;7392901;19;20022;-82
2024/02/27 07:12:17;;;;;;;1.40;1.08;;;;;;;14.47;nan;100231.16;7392993;19;20031;-82
2024/02/27 07:14:44;;;;;;;1.73;1.38;;;;;;;14.72;nan;100219.16;7395059;19;20041;-82
2024/02/27 07:17:11;;;;;;;4.57;1.63;;;;;;;14.98;nan;100223.50;7393612;19;20007;-82
2024/02/27 07:19:42;;;;;;;9.13;2.28;;;;;;;15.10;nan;100225.13;7390851;19;20018;-82
2024/02/27 07:22:08;;;;;;;0.82;0.82;;;;;;;15.32;nan;100221.72;7390254;19;20022;-83
2024/02/27 07:24:34;;;;;;;1.08;1.08;;;;;;;15.24;nan;100217.06;7391737;19;20018;-82
2024/02/27 07:27:00;;;;;;;0.85;0.85;;;;;;;15.35;nan;100219.94;7391907;19;20014;-82
2024/02/27 07:29:26;;;;;;;3.65;1.75;;;;;;;14.90;nan;100219.59;7396050;19;20527;-82
2024/02/27 07:31:52;;;;;;;4.65;2.42;;;;;;;15.23;nan;100221.91;7391494;19;20014;-82
2024/02/27 07:34:19;;;;;;;3.05;1.20;;;;;;;14.76;nan;100226.09;7395297;19;20015;-82
2024/02/27 07:36:46;;;;;;;1.30;1.25;;;;;;;15.68;nan;100223.75;7392130;19;20041;-82
2024/02/27 07:39:12;;;;;;;1.40;1.02;;;;;;;15.64;nan;100225.25;7389683;19;20011;-82
2024/02/27 07:41:38;;;;;;;8.02;2.83;;;;;;;15.59;nan;100220.41;7393455;19;20015;-82
2024/02/27 07:44:05;;;;;;;3.70;1.35;;;;;;;16.12;nan;100214.78;7391593;19;20021;-81
2024/02/27 07:46:31;;;;;;;1.88;1.15;;;;;;;16.02;nan;100215.50;7390580;19;20028;-82
2024/02/27 07:48:57;;;;;;;3.75;2.67;;;;;;;16.08;nan;100214.25;7390404;19;20345;-82
2024/02/27 07:51:32;;;;;;;0.95;0.95;;;;;;;16.34;nan;100214.88;7391675;19;20026;-83
2024/02/27 07:53:58;;;;;;;3.42;2.15;;;;;;;16.37;nan;100213.84;7389490;19;20026;-84
2024/02/27 07:56:27;;;;;;;10.80;2.95;;;;;;;16.77;nan;100223.94;7389689;19;20039;-84
2024/02/27 07:58:55;;;;;;;14.95;2.72;;;;;;;16.61;nan;100216.25;7390597;19;20014;-86
2024/02/27 08:01:21;;;;;;;4.72;1.92;;;;;;;17.25;nan;100212.44;7392475;19;20026;-85
2024/02/27 08:03:47;;;;;;;1.98;1.77;;;;;;;17.64;nan;100221.63;7392401;19;20035;-86
2024/02/27 08:06:13;;;;;;;5.70;1.88;;;;;;;17.75;nan;100224.44;7390113;19;20014;-86
2024/02/27 08:08:39;;;;;;;2.40;2.13;;;;;;;17.52;nan;100225.00;7388415;19;20033;-85
2024/02/27 08:11:06;;;;;;;1.15;1.08;;;;;;;17.56;nan;100215.00;7391184;19;20022;-85
2024/02/27 08:13:32;;;;;;;2.00;1.73;;;;;;;17.58;nan;100215.25;7391229;19;20344;-85
2024/02/27 08:15:58;;;;;;;3.17;1.85;;;;;;;17.72;nan;100210.59;7386919;19;20468;-84
2024/02/27 08:18:25;;;;;;;2.50;2.10;;;;;;;17.88;nan;100199.28;7389075;19;20454;-86
2024/02/27 08:20:51;;;;;;;2.63;1.77;;;;;;;18.03;nan;100194.09;7391242;19;20026;-84
2024/02/27 08:23:18;;;;;;;3.58;1.17;;;;;;;18.10;nan;100179.44;7389032;19;20365;-86
2024/02/27 08:25:45;;;;;;;14.25;2.13;;;;;;;17.92;nan;100182.88;7390492;19;20014;-86
2024/02/27 08:28:12;;;;;;;1.55;1.35;;;;;;;17.96;nan;100169.28;7389348;19;20472;-86
2024/02/27 08:30:38;;;;;;;11.70;2.25;;;;;;;18.07;nan;100169.22;7389489;19;20022;-85
2024/02/27 08:33:05;;;;;;;8.57;1.98;;;;;;;18.02;nan;100161.56;7391836;19;20011;-85
2024/02/27 08:35:31;;;;;;;2.25;2.13;;;;;;;18.02;nan;100149.50;7388565;19;20106;-85
2024/02/27 08:37:58;;;;;;;1.42;1.33;;;;;;;16.86;nan;100155.41;7392394;19;20024;-85
2024/02/27 08:40:25;;;;;;;2.47;2.10;;;;;;;16.96;nan;100151.03;7389700;19;20021;-85
2024/02/27 08:42:52;;;;;;;2.40;0.93;;;;;;;16.96;nan;100145.41;7388729;19;20038;-85
2024/02/27 08:45:19;;;;;;;0.60;0.55;;;;;;;17.34;nan;100147.44;7393920;19;20463;-85
2024/02/27 08:47:45;;;;;;;6.68;3.80;;;;;;;18.29;nan;100157.06;7388662;19;20054;-85
2024/02/27 08:50:13;;;;;;;2.47;2.28;;;;;;;19.94;nan;100165.38;7392479;19;20018;-85
2024/02/27 08:52:39;;;;;;;3.78;1.75;;;;;;;20.37;nan;100156.84;7388877;19;20430;-86
2024/02/27 08:55:06;;;;;;;4.05;1.98;;;;;;;20.92;nan;100155.97;7389459;19;20039;-84
2024/02/27 08:57:32;;;;;;;2.30;1.52;;;;;;;19.15;nan;100163.88;7390410;19;20042;-84
2024/02/27 08:59:59;;;;;;;6.10;3.10;;;;;;;18.48;nan;100160.03;7387833;19;20379;-83
2024/02/27 09:02:26;;;;;;;2.33;1.80;;;;;;;17.80;nan;100160.91;7392289;19;20097;-82
2024/02/27 09:04:52;;;;;;;2.47;0.95;;;;;;;18.85;nan;100152.59;7386885;19;20368;-83
2024/02/27 09:07:18;;;;;;;3.10;1.42;;;;;;;19.95;nan;100143.50;7389494;19;20011;-86
2024/02/27 09:09:44;;;;;;;4.78;2.95;;;;;;;20.26;nan;100142.84;7392412;19;20015;-85
2024/02/27 09:12:11;;;;;;;3.65;1.50;;;;;;;20.20;nan;100142.94;7389305;19;20033;-83
2024/02/27 09:14:38;;;;;;;1.88;1.30;;;;;;;19.56;nan;100141.13;7390544;19;20018;-82
2024/02/27 09:17:04;;;;;;;3.47;1.90;;;;;;;18.62;nan;100139.19;7389274;19;20017;-83
2024/02/27 09:19:30;;;;;;;5.93;1.70;;;;;;;18.97;nan;100141.22;7387785;19;20015;-83
2024/02/27 09:21:56;;;;;;;5.00;1.65;;;;;;;19.12;nan;100133.88;7390317;19;20014;-83
2024/02/27 09:24:23;;;;;;;3.53;2.40;;;;;;;19.17;nan;100147.16;7388028;19;20033;-82
2024/02/27 09:26:49;;;;;;;2.47;2.00;;;;;;;18.99;nan;100136.56;7386035;19;20361;-82
2024/02/27 09:29:15;;;;;;;1.17;1.10;;;;;;;18.99;nan;100125.28;7386691;19;20021;-83
2024/02/27 09:31:45;;;;;;;3.33;1.52;;;;;;;18.86;nan;100131.53;7386161;19;20006;-83
2024/02/27 09:34:12;;;;;;;4.70;1.63;;;;;;;18.54;nan;100118.44;7392297;19;20045;-83
2024/02/27 09:36:38;;;;;;;0.68;0.68;;;;;;;19.20;nan;100115.06;7387469;19;20041;-82
2024/02/27 09:39:06;;;;;;;1.05;0.98;;;;;;;19.65;nan;100098.41;7388344;19;20018;-82
2024/02/27 09:41:48;;;;;;;0.98;0.90;;;;;;;19.65;nan;100112.53;7387364;19;20019;-82
2024/02/27 09:44:15;;;;;;;;;;;;;;;19.87;nan;100097.34;7388535;19;20315;-82
2024/02/27 09:46:42;;;;;;;19.17;2.75;;;;;;;19.35;nan;100098.50;7393744;19;19929;-83
2024/02/27 09:49:09;;;;;;;3.85;2.30;;;;;;;19.46;nan;100098.38;7391400;19;20086;-82
2024/02/27 09:51:38;;;;;;;4.65;2.05;;;;;;;22.14;nan;100085.59;7395657;19;20014;-82
2024/02/27 09:54:05;;;;;;;6.25;2.65;;;;;;;21.00;nan;100083.25;7395278;19;20414;-82
2024/02/27 09:56:34;;;;;;;4.47;2.97;;;;;;;21.87;nan;100079.22;7394482;19;20022;-82
2024/02/27 09:59:03;;;;;;;2.05;1.95;;;;;;;22.43;nan;100078.75;7396203;19;20432;-82
2024/02/27 10:01:31;;;;;;;4.70;2.00;;;;;;;22.56;nan;100078.69;7395109;19;20507;-81
2024/02/27 10:03:59;;;;;;;7.13;2.53;;;;;;;23.11;nan;100078.56;7393475;19;20018;-82
2024/02/27 10:06:32;;;;;;;6.35;1.02;;;;;;;23.05;nan;100064.53;7393323;19;20370;-82
2024/02/27 10:09:02;;;;;;;3.85;1.98;;;;;;;22.17;nan;100067.50;7391092;19;20022;-81
2024/02/27 10:11:29;;;;;;;2.28;2.00;;;;;;;22.12;nan;100065.53;7393841;19;20015;-82
2024/02/27 10:13:55;;;;;;;1.73;1.63;;;;;;;21.56;nan;100070.88;7394366;19;20101;-81
2024/02/27 10:16:23;;;;;;;3.05;2.30;;;;;;;22.60;nan;100069.84;7393725;19;20023;-81
2024/02/27 10:18:50;;;;;;;2.63;1.25;;;;;;;21.94;nan;100066.44;7394005;19;20051;-82
2024/02/27 10:21:19;;;;;;;15.40;1.88;;;;;;;22.58;nan;100073.19;7394773;19;20018;-82
2024/02/27 10:23:46;;;;;;;1.95;0.80;;;;;;;22.29;nan;100074.41;7390750;19;20033;-83
2024/02/27 10:26:12;;;;;;;5.43;1.52;;;;;;;22.13;nan;100069.91;7390219;19;20495;-82
2024/02/27 10:28:39;;;;;;;2.15;1.40;;;;;;;22.21;nan;100070.75;7389936;19;20018;-83
2024/02/27 10:31:10;;;;;;;1.30;0.95;;;;;;;22.30;nan;100064.59;7394655;19;20105;-83
2024/02/27 10:33:41;;;;;;;0.85;0.80;;;;;;;22.61;nan;100060.75;7397571;19;20378;-82
2024/02/27 10:36:10;;;;;;;;;;;;;;;21.69;nan;100045.34;7395378;19;20019;-83
2024/02/27 10:38:36;;;;;;;1.58;1.48;;;;;;;22.07;nan;100040.16;7390690;19;19922;-83
2024/02/27 10:41:03;;;;;;;0.98;0.93;;;;;;;21.47;nan;100040.91;7390711;19;20015;-83
2024/02/27 10:43:33;;;;;;;1.30;1.17;;;;;;;21.74;nan;100045.19;7395586;19;20006;-83
2024/02/27 10:45:59;;;;;;;2.92;1.20;;;;;;;21.77;nan;100040.50;7391151;19;20019;-83
2024/02/27 10:48:27;;;;;;;2.05;1.27;;;;;;;21.95;nan;100045.31;7391274;19;20026;-83
2024/02/27 10:50:54;;;;;;;1.33;1.23;;;;;;;22.31;nan;100043.41;7391680;19;20348;-83
2024/02/27 10:53:24;;;;;;;0.30;0.30;;;;;;;22.60;nan;100042.22;7392443;19;20031;-83
2024/02/27 10:55:52;;;;;;;4.47;0.88;;;;;;;24.03;nan;100028.06;7387977;19;20014;-82
2024/02/27 10:58:19;;;;;;;4.85;1.17;;;;;;;24.48;nan;100024.56;7393221;19;20006;-83
2024/02/27 11:00:46;;;;;;;3.53;1.00;;;;;;;24.38;nan;100020.00;7393437;19;20019;-83
2024/02/27 11:03:13;;;;;;;2.25;0.65;;;;;;;23.83;nan;100033.88;7393495;19;20025;-83
2024/02/27 11:05:44;;;;;;;2.45;1.25;;;;;;;22.51;nan;100028.47;7392741;19;20014;-83
2024/02/27 11:08:12;;;;;;;1.65;0.73;;;;;;;22.45;nan;100033.53;7389547;19;20511;-83
2024/02/27 11:10:38;;;;;;;4.25;1.33;;;;;;;22.77;nan;100026.81;7393075;19;20011;-83
2024/02/27 11:13:07;;;;;;;8.15;2.28;;;;;;;24.04;nan;100018.22;7393359;19;20019;-83
2024/02/27 11:15:35;;;;;;;6.05;2.58;;;;;;;23.79;nan;100017.19;7391124;19;20077;-83
2024/02/27 11:18:06;;;;;;;1.13;0.90;;;;;;;23.20;nan;100019.16;7386341;19;20436;-82
2024/02/27 11:20:33;;;;;;;1.17;1.10;;;;;;;23.39;nan;100032.38;7386461;19;20578;-82
2024/02/27 11:22:59;;;;;;;10.02;2.35;;;;;;;23.46;nan;100011.72;7388539;19;20018;-82
2024/02/27 11:25:25;;;;;;;7.30;1.25;;;;;;;23.53;nan;100016.69;7387564;19;20025;-82
2024/02/27 11:27:54;;;;;;;14.18;2.75;;;;;;;23.54;nan;100013.28;7389099;19;20019;-83
2024/02/27 11:30:22;;;;;;;1.45;1.20;;;;;;;23.72;nan;100002.94;7389992;19;20045;-83
2024/02/27 11:32:50;;;;;;;2.85;1.40;;;;;;;23.91;nan;99995.59;7393566;19;20356;-82
2024/02/27 11:35:19;;;;;;;5.90;2.00;;;;;;;23.75;nan;99994.06;7391482;19;20018;-82
2024/02/27 11:37:48;;;;;;;4.55;1.58;;;;;;;23.65;nan;99995.88;7390994;19;20030;-83
2024/02/27 11:40:46;;;;;;;3.33;1.23;;;;;;;23.75;nan;99994.06;7392497;19;20047;-83
2024/02/27 11:43:13;;;;;;;3.45;0.75;;;;;;;23.67;nan;99993.25;7390503;19;20102;-83